sensor_id;sensor_type;location;lat;lon;timestamp;P1;durP1;ratioP1;P2;durP2;ratioP2
43640;SDS011;72791;52.546;13.570;2023-10-08T00:02:44;0.65;;;0.40;;
43640;SDS011;72791;52.546;13.570;2023-10-08T00:05:10;0.17;;;0.17;;
43640;SDS011;72791;52.546;13.570;2023-10-08T00:07:36;0.08;;;0.08;;
43640;SDS011;72791;52.546;13.570;2023-10-08T00:10:07;0.43;;;0.43;;
43640;SDS011;72791;52.546;13.570;2023-10-08T00:12:33;0.00;;;0.00;;
43640;SDS011;72791;52.546;13.570;2023-10-08T00:14:59;0.20;;;0.20;;
43640;SDS011;72791;52.546;13.570;2023-10-08T00:17:26;0.43;;;0.43;;
43640;SDS011;72791;52.546;13.570;2023-10-08T00:19:51;2.72;;;0.90;;
43640;SDS011;72791;52.546;13.570;2023-10-08T00:22:18;0.25;;;0.15;;
43640;SDS011;72791;52.546;13.570;2023-10-08T00:24:45;7.65;;;1.10;;
43640;SDS011;72791;52.546;13.570;2023-10-08T00:27:12;0.20;;;0.20;;
43640;SDS011;72791;52.546;13.570;2023-10-08T00:29:40;0.05;;;0.05;;
43640;SDS011;72791;52.546;13.570;2023-10-08T00:32:08;0.00;;;0.00;;
43640;SDS011;72791;52.546;13.570;2023-10-08T00:34:37;0.00;;;0.00;;
43640;SDS011;72791;52.546;13.570;2023-10-08T00:37:07;0.20;;;0.20;;
43640;SDS011;72791;52.546;13.570;2023-10-08T00:39:36;1.15;;;0.80;;
43640;SDS011;72791;52.546;13.570;2023-10-08T00:42:06;0.55;;;0.55;;
43640;SDS011;72791;52.546;13.570;2023-10-08T00:44:33;0.47;;;0.47;;
43640;SDS011;72791;52.546;13.570;2023-10-08T00:47:04;0.47;;;0.30;;
43640;SDS011;72791;52.546;13.570;2023-10-08T00:49:31;1.10;;;0.63;;
43640;SDS011;72791;52.546;13.570;2023-10-08T00:52:13;0.10;;;0.10;;
43640;SDS011;72791;52.546;13.570;2023-10-08T00:54:40;0.30;;;0.30;;
43640;SDS011;72791;52.546;13.570;2023-10-08T00:57:18;12.57;;;1.65;;
43640;SDS011;72791;52.546;13.570;2023-10-08T00:59:47;0.00;;;0.00;;
43640;SDS011;72791;52.546;13.570;2023-10-08T01:02:21;0.47;;;0.47;;
43640;SDS011;72791;52.546;13.570;2023-10-08T01:04:52;0.03;;;0.03;;
43640;SDS011;72791;52.546;13.570;2023-10-08T01:07:19;0.65;;;0.43;;
43640;SDS011;72791;52.546;13.570;2023-10-08T01:09:46;0.63;;;0.63;;
43640;SDS011;72791;52.546;13.570;2023-10-08T01:12:17;0.40;;;0.40;;
43640;SDS011;72791;52.546;13.570;2023-10-08T01:14:53;0.00;;;0.00;;
43640;SDS011;72791;52.546;13.570;2023-10-08T01:17:20;0.00;;;0.00;;
43640;SDS011;72791;52.546;13.570;2023-10-08T01:19:56;0.90;;;0.90;;
43640;SDS011;72791;52.546;13.570;2023-10-08T01:22:33;0.17;;;0.17;;
43640;SDS011;72791;52.546;13.570;2023-10-08T01:24:59;2.55;;;1.55;;
43640;SDS011;72791;52.546;13.570;2023-10-08T01:27:29;0.00;;;0.00;;
43640;SDS011;72791;52.546;13.570;2023-10-08T01:29:59;0.10;;;0.10;;
43640;SDS011;72791;52.546;13.570;2023-10-08T01:32:46;0.08;;;0.08;;
43640;SDS011;72791;52.546;13.570;2023-10-08T01:35:11;0.10;;;0.10;;
43640;SDS011;72791;52.546;13.570;2023-10-08T01:37:49;0.22;;;0.22;;
43640;SDS011;72791;52.546;13.570;2023-10-08T01:40:16;0.00;;;0.00;;
43640;SDS011;72791;52.546;13.570;2023-10-08T01:42:42;0.03;;;0.03;;
43640;SDS011;72791;52.546;13.570;2023-10-08T01:45:08;0.22;;;0.22;;
43640;SDS011;72791;52.546;13.570;2023-10-08T01:47:37;0.22;;;0.22;;
43640;SDS011;72791;52.546;13.570;2023-10-08T01:50:03;0.10;;;0.10;;
43640;SDS011;72791;52.546;13.570;2023-10-08T01:52:46;2.08;;;1.35;;
43640;SDS011;72791;52.546;13.570;2023-10-08T01:55:12;8.60;;;1.63;;
43640;SDS011;72791;52.546;13.570;2023-10-08T01:57:43;0.00;;;0.00;;
43640;SDS011;72791;52.546;13.570;2023-10-08T02:00:11;0.15;;;0.15;;
43640;SDS011;72791;52.546;13.570;2023-10-08T02:02:49;0.00;;;0.00;;
43640;SDS011;72791;52.546;13.570;2023-10-08T02:05:15;0.35;;;0.35;;
43640;SDS011;72791;52.546;13.570;2023-10-08T02:07:46;1.08;;;0.95;;
43640;SDS011;72791;52.546;13.570;2023-10-08T02:10:12;0.52;;;0.47;;
43640;SDS011;72791;52.546;13.570;2023-10-08T02:12:41;0.10;;;0.10;;
43640;SDS011;72791;52.546;13.570;2023-10-08T02:15:07;0.00;;;0.00;;
43640;SDS011;72791;52.546;13.570;2023-10-08T02:17:33;0.00;;;0.00;;
43640;SDS011;72791;52.546;13.570;2023-10-08T02:20:00;0.00;;;0.00;;
43640;SDS011;72791;52.546;13.570;2023-10-08T02:22:30;0.35;;;0.35;;
43640;SDS011;72791;52.546;13.570;2023-10-08T02:24:56;0.25;;;0.25;;
43640;SDS011;72791;52.546;13.570;2023-10-08T02:27:26;0.63;;;0.63;;
43640;SDS011;72791;52.546;13.570;2023-10-08T02:29:54;0.20;;;0.20;;
43640;SDS011;72791;52.546;13.570;2023-10-08T02:32:20;7.28;;;2.10;;
43640;SDS011;72791;52.546;13.570;2023-10-08T02:34:47;10.55;;;4.32;;
43640;SDS011;72791;52.546;13.570;2023-10-08T02:37:15;9.88;;;3.83;;
43640;SDS011;72791;52.546;13.570;2023-10-08T02:39:41;15.30;;;5.30;;
43640;SDS011;72791;52.546;13.570;2023-10-08T02:42:10;13.73;;;4.35;;
43640;SDS011;72791;52.546;13.570;2023-10-08T02:44:39;15.38;;;4.43;;
43640;SDS011;72791;52.546;13.570;2023-10-08T02:47:09;16.23;;;4.82;;
43640;SDS011;72791;52.546;13.570;2023-10-08T02:49:41;15.38;;;5.10;;
43640;SDS011;72791;52.546;13.570;2023-10-08T02:52:07;16.05;;;5.82;;
43640;SDS011;72791;52.546;13.570;2023-10-08T02:54:37;14.15;;;5.15;;
43640;SDS011;72791;52.546;13.570;2023-10-08T02:57:06;11.93;;;5.05;;
43640;SDS011;72791;52.546;13.570;2023-10-08T02:59:39;12.70;;;5.00;;
43640;SDS011;72791;52.546;13.570;2023-10-08T03:02:09;16.85;;;6.10;;
43640;SDS011;72791;52.546;13.570;2023-10-08T03:04:47;20.42;;;5.95;;
43640;SDS011;72791;52.546;13.570;2023-10-08T03:07:16;12.27;;;6.07;;
43640;SDS011;72791;52.546;13.570;2023-10-08T03:10:11;20.10;;;5.80;;
43640;SDS011;72791;52.546;13.570;2023-10-08T03:12:47;19.33;;;6.10;;
43640;SDS011;72791;52.546;13.570;2023-10-08T03:15:13;22.75;;;7.28;;
43640;SDS011;72791;52.546;13.570;2023-10-08T03:17:54;15.13;;;5.60;;
43640;SDS011;72791;52.546;13.570;2023-10-08T03:20:22;16.75;;;4.93;;
43640;SDS011;72791;52.546;13.570;2023-10-08T03:22:55;14.60;;;5.57;;
43640;SDS011;72791;52.546;13.570;2023-10-08T03:25:24;20.05;;;4.60;;
43640;SDS011;72791;52.546;13.570;2023-10-08T03:27:51;21.00;;;5.82;;
43640;SDS011;72791;52.546;13.570;2023-10-08T03:30:19;23.75;;;5.22;;
43640;SDS011;72791;52.546;13.570;2023-10-08T03:32:45;12.80;;;4.88;;
43640;SDS011;72791;52.546;13.570;2023-10-08T03:35:16;13.63;;;5.95;;
43640;SDS011;72791;52.546;13.570;2023-10-08T03:37:48;12.40;;;4.80;;
43640;SDS011;72791;52.546;13.570;2023-10-08T03:40:15;16.95;;;5.70;;
43640;SDS011;72791;52.546;13.570;2023-10-08T03:42:47;13.35;;;5.65;;
43640;SDS011;72791;52.546;13.570;2023-10-08T03:45:14;19.77;;;6.30;;
43640;SDS011;72791;52.546;13.570;2023-10-08T03:47:47;21.35;;;5.68;;
43640;SDS011;72791;52.546;13.570;2023-10-08T03:50:28;16.38;;;5.65;;
43640;SDS011;72791;52.546;13.570;2023-10-08T03:53:05;15.32;;;5.80;;
43640;SDS011;72791;52.546;13.570;2023-10-08T03:55:37;15.15;;;5.45;;
43640;SDS011;72791;52.546;13.570;2023-10-08T03:58:06;17.42;;;6.43;;
43640;SDS011;72791;52.546;13.570;2023-10-08T04:00:39;19.05;;;5.38;;
43640;SDS011;72791;52.546;13.570;2023-10-08T04:03:08;19.35;;;5.78;;
43640;SDS011;72791;52.546;13.570;2023-10-08T04:05:36;13.40;;;6.00;;
43640;SDS011;72791;52.546;13.570;2023-10-08T04:08:09;20.67;;;5.65;;
43640;SDS011;72791;52.546;13.570;2023-10-08T04:11:04;15.95;;;5.35;;
43640;SDS011;72791;52.546;13.570;2023-10-08T04:13:34;24.05;;;5.85;;
43640;SDS011;72791;52.546;13.570;2023-10-08T04:16:04;17.58;;;5.45;;
43640;SDS011;72791;52.546;13.570;2023-10-08T04:18:31;20.33;;;6.50;;
43640;SDS011;72791;52.546;13.570;2023-10-08T04:20:57;16.52;;;5.45;;
43640;SDS011;72791;52.546;13.570;2023-10-08T04:23:30;16.83;;;5.47;;
43640;SDS011;72791;52.546;13.570;2023-10-08T04:25:56;14.70;;;5.45;;
43640;SDS011;72791;52.546;13.570;2023-10-08T04:28:22;14.63;;;5.53;;
43640;SDS011;72791;52.546;13.570;2023-10-08T04:30:53;12.77;;;5.85;;
43640;SDS011;72791;52.546;13.570;2023-10-08T04:33:25;11.63;;;5.20;;
43640;SDS011;72791;52.546;13.570;2023-10-08T04:35:55;13.52;;;4.63;;
43640;SDS011;72791;52.546;13.570;2023-10-08T04:38:24;17.02;;;5.55;;
43640;SDS011;72791;52.546;13.570;2023-10-08T04:40:51;13.98;;;5.45;;
43640;SDS011;72791;52.546;13.570;2023-10-08T04:43:21;18.55;;;5.68;;
43640;SDS011;72791;52.546;13.570;2023-10-08T04:45:53;12.98;;;5.28;;
43640;SDS011;72791;52.546;13.570;2023-10-08T04:48:30;12.32;;;5.53;;
43640;SDS011;72791;52.546;13.570;2023-10-08T04:51:01;17.73;;;5.45;;
43640;SDS011;72791;52.546;13.570;2023-10-08T04:53:29;16.55;;;5.72;;
43640;SDS011;72791;52.546;13.570;2023-10-08T04:56:06;12.90;;;5.20;;
43640;SDS011;72791;52.546;13.570;2023-10-08T04:58:41;16.83;;;5.30;;
43640;SDS011;72791;52.546;13.570;2023-10-08T05:01:14;13.48;;;5.38;;
43640;SDS011;72791;52.546;13.570;2023-10-08T05:03:47;15.07;;;5.70;;
43640;SDS011;72791;52.546;13.570;2023-10-08T05:06:23;12.18;;;5.47;;
43640;SDS011;72791;52.546;13.570;2023-10-08T05:11:52;16.13;;;5.65;;
43640;SDS011;72791;52.546;13.570;2023-10-08T05:16:59;13.82;;;5.65;;
43640;SDS011;72791;52.546;13.570;2023-10-08T05:19:47;18.38;;;5.65;;
43640;SDS011;72791;52.546;13.570;2023-10-08T05:24:53;14.10;;;5.15;;
43640;SDS011;72791;52.546;13.570;2023-10-08T05:27:32;16.38;;;6.15;;
43640;SDS011;72791;52.546;13.570;2023-10-08T05:32:42;24.65;;;6.05;;
43640;SDS011;72791;52.546;13.570;2023-10-08T05:35:29;23.00;;;7.22;;
43640;SDS011;72791;52.546;13.570;2023-10-08T05:38:11;21.55;;;6.35;;
43640;SDS011;72791;52.546;13.570;2023-10-08T05:40:39;20.98;;;6.75;;
43640;SDS011;72791;52.546;13.570;2023-10-08T05:43:36;12.77;;;5.95;;
43640;SDS011;72791;52.546;13.570;2023-10-08T05:46:13;18.80;;;5.93;;
43640;SDS011;72791;52.546;13.570;2023-10-08T05:48:49;15.75;;;6.20;;
43640;SDS011;72791;52.546;13.570;2023-10-08T05:51:31;14.60;;;6.28;;
43640;SDS011;72791;52.546;13.570;2023-10-08T05:54:18;22.77;;;6.60;;
43640;SDS011;72791;52.546;13.570;2023-10-08T05:56:59;17.80;;;6.45;;
43640;SDS011;72791;52.546;13.570;2023-10-08T05:59:36;17.95;;;6.50;;
43640;SDS011;72791;52.546;13.570;2023-10-08T06:02:39;26.17;;;6.97;;
43640;SDS011;72791;52.546;13.570;2023-10-08T06:05:10;16.02;;;7.85;;
43640;SDS011;72791;52.546;13.570;2023-10-08T06:10:30;20.08;;;6.78;;
43640;SDS011;72791;52.546;13.570;2023-10-08T06:12:57;13.32;;;7.50;;
43640;SDS011;72791;52.546;13.570;2023-10-08T06:15:47;20.02;;;5.85;;
43640;SDS011;72791;52.546;13.570;2023-10-08T06:18:31;13.88;;;5.28;;
43640;SDS011;72791;52.546;13.570;2023-10-08T06:21:02;14.38;;;4.78;;
43640;SDS011;72791;52.546;13.570;2023-10-08T06:23:33;12.63;;;5.07;;
43640;SDS011;72791;52.546;13.570;2023-10-08T06:26:03;14.15;;;5.03;;
43640;SDS011;72791;52.546;13.570;2023-10-08T06:28:35;11.73;;;5.40;;
43640;SDS011;72791;52.546;13.570;2023-10-08T06:31:03;14.88;;;4.82;;
43640;SDS011;72791;52.546;13.570;2023-10-08T06:33:37;15.98;;;4.65;;
43640;SDS011;72791;52.546;13.570;2023-10-08T06:36:05;13.77;;;5.03;;
43640;SDS011;72791;52.546;13.570;2023-10-08T06:38:39;9.63;;;4.82;;
43640;SDS011;72791;52.546;13.570;2023-10-08T06:41:07;8.90;;;3.80;;
43640;SDS011;72791;52.546;13.570;2023-10-08T06:43:39;10.77;;;4.28;;
43640;SDS011;72791;52.546;13.570;2023-10-08T06:46:10;8.73;;;3.40;;
43640;SDS011;72791;52.546;13.570;2023-10-08T06:48:39;14.80;;;4.38;;
43640;SDS011;72791;52.546;13.570;2023-10-08T06:51:12;8.13;;;3.08;;
43640;SDS011;72791;52.546;13.570;2023-10-08T06:53:40;5.95;;;3.03;;
43640;SDS011;72791;52.546;13.570;2023-10-08T06:56:16;7.70;;;2.90;;
43640;SDS011;72791;52.546;13.570;2023-10-08T06:58:44;6.75;;;2.50;;
43640;SDS011;72791;52.546;13.570;2023-10-08T07:01:14;7.93;;;2.70;;
43640;SDS011;72791;52.546;13.570;2023-10-08T07:03:49;7.10;;;1.90;;
43640;SDS011;72791;52.546;13.570;2023-10-08T07:06:16;6.32;;;2.10;;
43640;SDS011;72791;52.546;13.570;2023-10-08T07:08:42;4.55;;;1.98;;
43640;SDS011;72791;52.546;13.570;2023-10-08T07:11:20;5.53;;;1.67;;
43640;SDS011;72791;52.546;13.570;2023-10-08T07:13:46;3.17;;;1.67;;
43640;SDS011;72791;52.546;13.570;2023-10-08T07:16:12;5.65;;;2.08;;
43640;SDS011;72791;52.546;13.570;2023-10-08T07:18:42;5.30;;;2.22;;
43640;SDS011;72791;52.546;13.570;2023-10-08T07:21:16;6.32;;;1.98;;
43640;SDS011;72791;52.546;13.570;2023-10-08T07:23:42;4.13;;;1.80;;
43640;SDS011;72791;52.546;13.570;2023-10-08T07:26:29;4.47;;;1.83;;
43640;SDS011;72791;52.546;13.570;2023-10-08T07:29:01;3.42;;;1.48;;
43640;SDS011;72791;52.546;13.570;2023-10-08T07:31:34;3.25;;;1.50;;
43640;SDS011;72791;52.546;13.570;2023-10-08T07:34:02;5.13;;;1.63;;
43640;SDS011;72791;52.546;13.570;2023-10-08T07:36:54;4.55;;;1.40;;
43640;SDS011;72791;52.546;13.570;2023-10-08T07:39:21;6.45;;;1.98;;
43640;SDS011;72791;52.546;13.570;2023-10-08T07:41:52;2.22;;;1.55;;
43640;SDS011;72791;52.546;13.570;2023-10-08T07:44:19;4.53;;;1.60;;
43640;SDS011;72791;52.546;13.570;2023-10-08T07:46:50;4.93;;;1.63;;
43640;SDS011;72791;52.546;13.570;2023-10-08T07:49:19;2.50;;;1.35;;
43640;SDS011;72791;52.546;13.570;2023-10-08T07:51:45;5.50;;;1.60;;
43640;SDS011;72791;52.546;13.570;2023-10-08T07:54:18;2.65;;;1.35;;
43640;SDS011;72791;52.546;13.570;2023-10-08T07:56:46;2.20;;;1.38;;
43640;SDS011;72791;52.546;13.570;2023-10-08T07:59:13;4.57;;;1.20;;
43640;SDS011;72791;52.546;13.570;2023-10-08T08:01:41;2.05;;;1.13;;
43640;SDS011;72791;52.546;13.570;2023-10-08T08:04:11;5.63;;;2.25;;
43640;SDS011;72791;52.546;13.570;2023-10-08T08:06:47;3.38;;;1.30;;
43640;SDS011;72791;52.546;13.570;2023-10-08T08:09:15;2.30;;;0.98;;
43640;SDS011;72791;52.546;13.570;2023-10-08T08:11:48;4.93;;;1.27;;
43640;SDS011;72791;52.546;13.570;2023-10-08T08:14:16;2.38;;;1.00;;
43640;SDS011;72791;52.546;13.570;2023-10-08T08:16:49;4.28;;;1.63;;
43640;SDS011;72791;52.546;13.570;2023-10-08T08:19:15;3.15;;;1.60;;
43640;SDS011;72791;52.546;13.570;2023-10-08T08:21:45;2.63;;;1.10;;
43640;SDS011;72791;52.546;13.570;2023-10-08T08:24:12;2.55;;;0.98;;
43640;SDS011;72791;52.546;13.570;2023-10-08T08:26:38;2.97;;;1.30;;
43640;SDS011;72791;52.546;13.570;2023-10-08T08:29:05;2.63;;;1.20;;
43640;SDS011;72791;52.546;13.570;2023-10-08T08:31:34;1.75;;;1.02;;
43640;SDS011;72791;52.546;13.570;2023-10-08T08:34:01;2.80;;;1.23;;
43640;SDS011;72791;52.546;13.570;2023-10-08T08:36:33;3.38;;;1.30;;
43640;SDS011;72791;52.546;13.570;2023-10-08T08:38:59;3.40;;;1.60;;
43640;SDS011;72791;52.546;13.570;2023-10-08T08:41:24;5.05;;;0.88;;
43640;SDS011;72791;52.546;13.570;2023-10-08T08:43:51;3.58;;;1.63;;
43640;SDS011;72791;52.546;13.570;2023-10-08T08:46:33;2.75;;;0.98;;
43640;SDS011;72791;52.546;13.570;2023-10-08T08:49:04;3.53;;;0.90;;
43640;SDS011;72791;52.546;13.570;2023-10-08T08:51:32;6.28;;;1.30;;
43640;SDS011;72791;52.546;13.570;2023-10-08T08:54:00;5.07;;;1.02;;
43640;SDS011;72791;52.546;13.570;2023-10-08T08:56:32;3.80;;;1.55;;
43640;SDS011;72791;52.546;13.570;2023-10-08T08:59:05;2.17;;;0.70;;
43640;SDS011;72791;52.546;13.570;2023-10-08T09:01:31;1.63;;;0.60;;
43640;SDS011;72791;52.546;13.570;2023-10-08T09:04:04;1.27;;;0.60;;
43640;SDS011;72791;52.546;13.570;2023-10-08T09:06:37;1.40;;;0.80;;
43640;SDS011;72791;52.546;13.570;2023-10-08T09:09:06;1.65;;;1.08;;
43640;SDS011;72791;52.546;13.570;2023-10-08T09:11:50;1.23;;;0.70;;
43640;SDS011;72791;52.546;13.570;2023-10-08T09:14:21;2.38;;;0.70;;
43640;SDS011;72791;52.546;13.570;2023-10-08T09:16:49;2.53;;;0.77;;
43640;SDS011;72791;52.546;13.570;2023-10-08T09:19:15;1.25;;;0.57;;
43640;SDS011;72791;52.546;13.570;2023-10-08T09:22:00;1.17;;;0.70;;
43640;SDS011;72791;52.546;13.570;2023-10-08T09:24:38;3.85;;;0.80;;
43640;SDS011;72791;52.546;13.570;2023-10-08T09:27:05;2.97;;;0.85;;
43640;SDS011;72791;52.546;13.570;2023-10-08T09:29:40;2.08;;;0.85;;
43640;SDS011;72791;52.546;13.570;2023-10-08T09:32:15;1.88;;;0.85;;
43640;SDS011;72791;52.546;13.570;2023-10-08T09:34:48;3.45;;;1.25;;
43640;SDS011;72791;52.546;13.570;2023-10-08T09:37:17;1.05;;;0.70;;
43640;SDS011;72791;52.546;13.570;2023-10-08T09:39:47;1.23;;;0.63;;
43640;SDS011;72791;52.546;13.570;2023-10-08T09:42:14;2.45;;;0.60;;
43640;SDS011;72791;52.546;13.570;2023-10-08T09:44:39;0.43;;;0.30;;
43640;SDS011;72791;52.546;13.570;2023-10-08T09:47:08;1.27;;;0.60;;
43640;SDS011;72791;52.546;13.570;2023-10-08T09:49:45;1.48;;;0.93;;
43640;SDS011;72791;52.546;13.570;2023-10-08T09:53:15;0.90;;;0.60;;
43640;SDS011;72791;52.546;13.570;2023-10-08T09:55:45;1.13;;;0.60;;
43640;SDS011;72791;52.546;13.570;2023-10-08T09:58:19;1.15;;;1.05;;
43640;SDS011;72791;52.546;13.570;2023-10-08T10:00:47;1.27;;;0.50;;
43640;SDS011;72791;52.546;13.570;2023-10-08T10:03:14;0.90;;;0.60;;
43640;SDS011;72791;52.546;13.570;2023-10-08T10:05:44;1.52;;;0.50;;
43640;SDS011;72791;52.546;13.570;2023-10-08T10:08:10;0.50;;;0.50;;
43640;SDS011;72791;52.546;13.570;2023-10-08T10:10:36;0.70;;;0.50;;
43640;SDS011;72791;52.546;13.570;2023-10-08T10:13:04;1.00;;;0.43;;
43640;SDS011;72791;52.546;13.570;2023-10-08T10:15:33;2.30;;;0.68;;
43640;SDS011;72791;52.546;13.570;2023-10-08T10:18:09;2.35;;;0.50;;
43640;SDS011;72791;52.546;13.570;2023-10-08T10:21:23;1.70;;;0.60;;
43640;SDS011;72791;52.546;13.570;2023-10-08T10:23:45;3.15;;;0.50;;
43640;SDS011;72791;52.546;13.570;2023-10-08T10:37:00;1.75;;;0.50;;
43640;SDS011;72791;52.546;13.570;2023-10-08T10:39:50;2.55;;;0.50;;
43640;SDS011;72791;52.546;13.570;2023-10-08T10:42:20;1.15;;;0.70;;
43640;SDS011;72791;52.546;13.570;2023-10-08T10:44:47;1.67;;;0.75;;
43640;SDS011;72791;52.546;13.570;2023-10-08T10:47:18;0.80;;;0.50;;
43640;SDS011;72791;52.546;13.570;2023-10-08T10:49:48;1.13;;;0.52;;
43640;SDS011;72791;52.546;13.570;2023-10-08T10:55:05;1.67;;;0.70;;
43640;SDS011;72791;52.546;13.570;2023-10-08T10:57:54;1.00;;;0.47;;
43640;SDS011;72791;52.546;13.570;2023-10-08T11:00:21;1.35;;;0.73;;
43640;SDS011;72791;52.546;13.570;2023-10-08T11:02:57;1.05;;;0.30;;
43640;SDS011;72791;52.546;13.570;2023-10-08T11:05:31;1.58;;;0.60;;
43640;SDS011;72791;52.546;13.570;2023-10-08T11:08:02;2.28;;;0.60;;
43640;SDS011;72791;52.546;13.570;2023-10-08T11:10:31;1.35;;;0.40;;
43640;SDS011;72791;52.546;13.570;2023-10-08T11:13:04;0.98;;;0.55;;
43640;SDS011;72791;52.546;13.570;2023-10-08T11:15:42;2.60;;;0.70;;
43640;SDS011;72791;52.546;13.570;2023-10-08T11:18:14;0.98;;;0.60;;
43640;SDS011;72791;52.546;13.570;2023-10-08T11:20:41;2.22;;;0.40;;
43640;SDS011;72791;52.546;13.570;2023-10-08T11:23:32;0.85;;;0.45;;
43640;SDS011;72791;52.546;13.570;2023-10-08T11:26:07;0.73;;;0.50;;
43640;SDS011;72791;52.546;13.570;2023-10-08T11:28:34;2.60;;;0.50;;
43640;SDS011;72791;52.546;13.570;2023-10-08T11:31:12;0.88;;;0.50;;
43640;SDS011;72791;52.546;13.570;2023-10-08T11:33:42;1.30;;;0.65;;
43640;SDS011;72791;52.546;13.570;2023-10-08T11:36:21;2.83;;;0.60;;
43640;SDS011;72791;52.546;13.570;2023-10-08T11:38:54;2.17;;;0.60;;
43640;SDS011;72791;52.546;13.570;2023-10-08T11:41:32;2.25;;;0.68;;
43640;SDS011;72791;52.546;13.570;2023-10-08T11:44:15;1.05;;;0.50;;
43640;SDS011;72791;52.546;13.570;2023-10-08T11:47:01;0.80;;;0.50;;
43640;SDS011;72791;52.546;13.570;2023-10-08T11:49:58;1.02;;;0.50;;
43640;SDS011;72791;52.546;13.570;2023-10-08T11:52:35;1.00;;;0.50;;
43640;SDS011;72791;52.546;13.570;2023-10-08T11:55:21;1.13;;;0.50;;
43640;SDS011;72791;52.546;13.570;2023-10-08T11:57:47;2.63;;;0.70;;
43640;SDS011;72791;52.546;13.570;2023-10-08T12:00:15;0.70;;;0.50;;
43640;SDS011;72791;52.546;13.570;2023-10-08T12:02:47;1.33;;;0.60;;
43640;SDS011;72791;52.546;13.570;2023-10-08T12:05:14;2.75;;;0.50;;
43640;SDS011;72791;52.546;13.570;2023-10-08T12:07:48;0.85;;;0.50;;
43640;SDS011;72791;52.546;13.570;2023-10-08T12:10:18;3.38;;;0.60;;
43640;SDS011;72791;52.546;13.570;2023-10-08T12:12:48;1.58;;;0.60;;
43640;SDS011;72791;52.546;13.570;2023-10-08T12:15:21;1.75;;;1.13;;
43640;SDS011;72791;52.546;13.570;2023-10-08T12:17:50;1.67;;;0.93;;
43640;SDS011;72791;52.546;13.570;2023-10-08T12:20:35;1.35;;;0.90;;
43640;SDS011;72791;52.546;13.570;2023-10-08T12:23:22;1.85;;;0.75;;
43640;SDS011;72791;52.546;13.570;2023-10-08T12:25:53;1.10;;;0.50;;
43640;SDS011;72791;52.546;13.570;2023-10-08T12:28:26;1.55;;;0.52;;
43640;SDS011;72791;52.546;13.570;2023-10-08T12:30:53;0.70;;;0.40;;
43640;SDS011;72791;52.546;13.570;2023-10-08T12:33:22;1.75;;;0.55;;
43640;SDS011;72791;52.546;13.570;2023-10-08T12:35:52;0.77;;;0.70;;
43640;SDS011;72791;52.546;13.570;2023-10-08T12:38:21;1.30;;;0.55;;
43640;SDS011;72791;52.546;13.570;2023-10-08T12:40:50;0.88;;;0.50;;
43640;SDS011;72791;52.546;13.570;2023-10-08T12:43:22;1.48;;;1.10;;
43640;SDS011;72791;52.546;13.570;2023-10-08T12:45:52;1.80;;;0.60;;
43640;SDS011;72791;52.546;13.570;2023-10-08T12:48:24;0.93;;;0.50;;
43640;SDS011;72791;52.546;13.570;2023-10-08T12:50:55;1.05;;;0.50;;
43640;SDS011;72791;52.546;13.570;2023-10-08T12:53:26;0.90;;;0.57;;
43640;SDS011;72791;52.546;13.570;2023-10-08T12:55:59;1.23;;;0.90;;
43640;SDS011;72791;52.546;13.570;2023-10-08T12:58:30;1.05;;;0.52;;
43640;SDS011;72791;52.546;13.570;2023-10-08T13:00:58;1.58;;;1.05;;
43640;SDS011;72791;52.546;13.570;2023-10-08T13:03:28;2.95;;;0.88;;
43640;SDS011;72791;52.546;13.570;2023-10-08T13:05:58;2.22;;;0.52;;
43640;SDS011;72791;52.546;13.570;2023-10-08T13:08:30;2.28;;;0.63;;
43640;SDS011;72791;52.546;13.570;2023-10-08T13:10:57;2.38;;;0.75;;
43640;SDS011;72791;52.546;13.570;2023-10-08T13:13:29;1.13;;;0.57;;
43640;SDS011;72791;52.546;13.570;2023-10-08T13:15:57;1.42;;;0.60;;
43640;SDS011;72791;52.546;13.570;2023-10-08T13:18:25;2.17;;;0.52;;
43640;SDS011;72791;52.546;13.570;2023-10-08T13:20:51;1.30;;;0.55;;
43640;SDS011;72791;52.546;13.570;2023-10-08T13:23:17;1.00;;;0.60;;
43640;SDS011;72791;52.546;13.570;2023-10-08T13:25:49;2.22;;;0.82;;
43640;SDS011;72791;52.546;13.570;2023-10-08T13:28:29;0.82;;;0.50;;
43640;SDS011;72791;52.546;13.570;2023-10-08T13:30:55;0.77;;;0.47;;
43640;SDS011;72791;52.546;13.570;2023-10-08T13:33:21;0.85;;;0.43;;
43640;SDS011;72791;52.546;13.570;2023-10-08T13:35:50;1.33;;;0.90;;
43640;SDS011;72791;52.546;13.570;2023-10-08T13:38:19;1.52;;;0.50;;
43640;SDS011;72791;52.546;13.570;2023-10-08T13:40:49;1.48;;;0.50;;
43640;SDS011;72791;52.546;13.570;2023-10-08T13:43:32;0.65;;;0.43;;
43640;SDS011;72791;52.546;13.570;2023-10-08T13:46:07;1.45;;;0.63;;
43640;SDS011;72791;52.546;13.570;2023-10-08T13:48:38;3.25;;;0.60;;
43640;SDS011;72791;52.546;13.570;2023-10-08T13:51:06;1.25;;;0.60;;
43640;SDS011;72791;52.546;13.570;2023-10-08T13:53:39;1.10;;;0.63;;
43640;SDS011;72791;52.546;13.570;2023-10-08T13:56:06;0.90;;;0.43;;
43640;SDS011;72791;52.546;13.570;2023-10-08T13:58:31;2.55;;;0.70;;
43640;SDS011;72791;52.546;13.570;2023-10-08T14:01:00;2.13;;;0.50;;
43640;SDS011;72791;52.546;13.570;2023-10-08T14:03:28;3.28;;;0.60;;
43640;SDS011;72791;52.546;13.570;2023-10-08T14:05:58;1.80;;;0.60;;
43640;SDS011;72791;52.546;13.570;2023-10-08T14:08:30;2.17;;;0.82;;
43640;SDS011;72791;52.546;13.570;2023-10-08T14:10:56;1.52;;;0.60;;
43640;SDS011;72791;52.546;13.570;2023-10-08T14:13:29;1.17;;;0.57;;
43640;SDS011;72791;52.546;13.570;2023-10-08T14:16:14;1.17;;;0.50;;
43640;SDS011;72791;52.546;13.570;2023-10-08T14:18:42;1.42;;;0.60;;
43640;SDS011;72791;52.546;13.570;2023-10-08T14:21:15;1.33;;;0.82;;
43640;SDS011;72791;52.546;13.570;2023-10-08T14:23:43;1.95;;;0.80;;
43640;SDS011;72791;52.546;13.570;2023-10-08T14:26:09;1.02;;;0.45;;
43640;SDS011;72791;52.546;13.570;2023-10-08T14:28:35;1.52;;;0.60;;
43640;SDS011;72791;52.546;13.570;2023-10-08T14:31:09;1.05;;;0.70;;
43640;SDS011;72791;52.546;13.570;2023-10-08T14:33:44;1.00;;;0.60;;
43640;SDS011;72791;52.546;13.570;2023-10-08T14:36:33;1.10;;;0.77;;
43640;SDS011;72791;52.546;13.570;2023-10-08T14:39:17;0.93;;;0.52;;
43640;SDS011;72791;52.546;13.570;2023-10-08T14:42:02;1.95;;;1.40;;
43640;SDS011;72791;52.546;13.570;2023-10-08T14:44:46;2.38;;;0.60;;
43640;SDS011;72791;52.546;13.570;2023-10-08T14:47:14;2.08;;;0.65;;
43640;SDS011;72791;52.546;13.570;2023-10-08T14:49:40;1.42;;;1.00;;
43640;SDS011;72791;52.546;13.570;2023-10-08T14:52:08;2.80;;;1.98;;
43640;SDS011;72791;52.546;13.570;2023-10-08T14:54:34;2.50;;;1.73;;
43640;SDS011;72791;52.546;13.570;2023-10-08T14:56:59;1.88;;;0.90;;
43640;SDS011;72791;52.546;13.570;2023-10-08T14:59:28;2.78;;;1.45;;
43640;SDS011;72791;52.546;13.570;2023-10-08T15:01:54;1.40;;;0.95;;
43640;SDS011;72791;52.546;13.570;2023-10-08T15:04:20;0.75;;;0.65;;
43640;SDS011;72791;52.546;13.570;2023-10-08T15:06:47;2.17;;;0.93;;
43640;SDS011;72791;52.546;13.570;2023-10-08T15:09:14;1.55;;;0.80;;
43640;SDS011;72791;52.546;13.570;2023-10-08T15:11:55;4.45;;;1.38;;
43640;SDS011;72791;52.546;13.570;2023-10-08T15:14:23;1.20;;;0.63;;
43640;SDS011;72791;52.546;13.570;2023-10-08T15:16:49;3.00;;;1.30;;
43640;SDS011;72791;52.546;13.570;2023-10-08T15:19:19;1.52;;;1.00;;
43640;SDS011;72791;52.546;13.570;2023-10-08T15:21:45;2.40;;;1.08;;
43640;SDS011;72791;52.546;13.570;2023-10-08T15:24:15;3.38;;;1.13;;
43640;SDS011;72791;52.546;13.570;2023-10-08T15:26:48;5.88;;;1.48;;